Union, Mississippi
Current Conditions -  °F | °C
As of 5:58 AM on Sunday 23 Nov 2014 (Local Time) from KMEI Reporting Station
Haze Haze  
Wind Chill: 58°   Ceiling: 500
Heat Index: 58°   Visibility: 4mi
Dew Point: 57°   Wind: 0mph
Humidity: 97%   Direction: NA
Pressure: 29.8"   Gusts: NA
Location:  32.57°N, 89.12°W
Report Text: KMEI 231158Z 00000KT 4SM BR OVC005 14/14 A2980 RMK AO2 RAB31E41 SLP088 P0000 60000 T01440139 10156 20144 56020
Loading
Personal Weather Stations






























Interactive Weather Map New forecast layout! Learn more

10-Day Weather Forecast

Advertisements
Track Severe Weather on mobile